sensor_id;sensor_type;location;lat;lon;timestamp;P1;P2;P0
71858;PMS5003;59713;50.866;4.324;2023-04-03T00:00:35;17;15;
71858;PMS5003;59713;50.866;4.324;2023-04-03T00:01:35;17;15;
71858;PMS5003;59713;50.866;4.324;2023-04-03T00:02:35;17;15;
71858;PMS5003;59713;50.866;4.324;2023-04-03T00:03:35;17;15;
71858;PMS5003;59713;50.866;4.324;2023-04-03T00:04:35;17;15;
71858;PMS5003;59713;50.866;4.324;2023-04-03T00:05:35;17;15;
71858;PMS5003;59713;50.866;4.324;2023-04-03T00:06:35;17;13;
71858;PMS5003;59713;50.866;4.324;2023-04-03T00:06:35;17;13;
71858;PMS5003;59713;50.866;4.324;2023-04-03T00:07:35;17;13;
71858;PMS5003;59713;50.866;4.324;2023-04-03T00:08:35;17;13;
71858;PMS5003;59713;50.866;4.324;2023-04-03T00:09:35;10;6;
71858;PMS5003;59713;50.866;4.324;2023-04-03T00:10:35;10;6;
71858;PMS5003;59713;50.866;4.324;2023-04-03T00:11:35;10;6;
71858;PMS5003;59713;50.866;4.324;2023-04-03T00:12:35;13;11;
71858;PMS5003;59713;50.866;4.324;2023-04-03T00:13:35;13;11;
71858;PMS5003;59713;50.866;4.324;2023-04-03T00:14:35;13;11;
71858;PMS5003;59713;50.866;4.324;2023-04-03T00:15:35;18;15;
71858;PMS5003;59713;50.866;4.324;2023-04-03T00:15:35;18;15;
71858;PMS5003;59713;50.866;4.324;2023-04-03T00:16:35;18;15;
71858;PMS5003;59713;50.866;4.324;2023-04-03T00:17:35;18;15;
71858;PMS5003;59713;50.866;4.324;2023-04-03T00:18:35;15;15;
71858;PMS5003;59713;50.866;4.324;2023-04-03T00:19:36;15;15;
71858;PMS5003;59713;50.866;4.324;2023-04-03T00:20:35;15;15;
71858;PMS5003;59713;50.866;4.324;2023-04-03T00:21:36;18;15;
71858;PMS5003;59713;50.866;4.324;2023-04-03T00:22:35;18;15;
71858;PMS5003;59713;50.866;4.324;2023-04-03T00:23:35;18;15;
71858;PMS5003;59713;50.866;4.324;2023-04-03T00:24:35;15;15;
71858;PMS5003;59713;50.866;4.324;2023-04-03T00:24:35;15;15;
71858;PMS5003;59713;50.866;4.324;2023-04-03T00:25:35;15;15;
71858;PMS5003;59713;50.866;4.324;2023-04-03T00:26:35;15;15;
71858;PMS5003;59713;50.866;4.324;2023-04-03T00:27:35;14;14;
71858;PMS5003;59713;50.866;4.324;2023-04-03T00:28:35;14;14;
71858;PMS5003;59713;50.866;4.324;2023-04-03T00:29:35;14;14;
71858;PMS5003;59713;50.866;4.324;2023-04-03T00:30:35;14;14;
71858;PMS5003;59713;50.866;4.324;2023-04-03T00:31:35;14;14;
71858;PMS5003;59713;50.866;4.324;2023-04-03T00:32:35;14;14;
71858;PMS5003;59713;50.866;4.324;2023-04-03T00:33:35;17;14;
71858;PMS5003;59713;50.866;4.324;2023-04-03T00:33:35;17;14;
71858;PMS5003;59713;50.866;4.324;2023-04-03T00:34:35;17;14;
71858;PMS5003;59713;50.866;4.324;2023-04-03T00:35:35;17;14;
71858;PMS5003;59713;50.866;4.324;2023-04-03T00:36:35;12;12;
71858;PMS5003;59713;50.866;4.324;2023-04-03T00:37:35;12;12;
71858;PMS5003;59713;50.866;4.324;2023-04-03T00:38:35;12;12;
71858;PMS5003;59713;50.866;4.324;2023-04-03T00:39:35;11;10;
71858;PMS5003;59713;50.866;4.324;2023-04-03T00:40:35;11;10;
71858;PMS5003;59713;50.866;4.324;2023-04-03T00:41:35;11;10;
71858;PMS5003;59713;50.866;4.324;2023-04-03T00:42:35;14;14;
71858;PMS5003;59713;50.866;4.324;2023-04-03T00:42:35;14;14;
71858;PMS5003;59713;50.866;4.324;2023-04-03T00:43:35;14;14;
71858;PMS5003;59713;50.866;4.324;2023-04-03T00:45:35;16;16;
71858;PMS5003;59713;50.866;4.324;2023-04-03T00:46:35;16;16;
71858;PMS5003;59713;50.866;4.324;2023-04-03T00:47:35;16;16;
71858;PMS5003;59713;50.866;4.324;2023-04-03T00:48:36;17;14;
71858;PMS5003;59713;50.866;4.324;2023-04-03T00:49:35;17;14;
71858;PMS5003;59713;50.866;4.324;2023-04-03T00:50:36;17;14;
71858;PMS5003;59713;50.866;4.324;2023-04-03T00:51:35;15;15;
71858;PMS5003;59713;50.866;4.324;2023-04-03T00:51:35;15;15;
71858;PMS5003;59713;50.866;4.324;2023-04-03T00:52:35;15;15;
71858;PMS5003;59713;50.866;4.324;2023-04-03T00:53:37;15;15;
71858;PMS5003;59713;50.866;4.324;2023-04-03T00:54:35;14;13;
71858;PMS5003;59713;50.866;4.324;2023-04-03T00:55:35;14;13;
71858;PMS5003;59713;50.866;4.324;2023-04-03T00:56:35;14;13;
71858;PMS5003;59713;50.866;4.324;2023-04-03T00:57:35;17;17;
71858;PMS5003;59713;50.866;4.324;2023-04-03T00:58:37;17;17;
71858;PMS5003;59713;50.866;4.324;2023-04-03T00:59:35;17;17;
71858;PMS5003;59713;50.866;4.324;2023-04-03T01:00:35;16;13;
71858;PMS5003;59713;50.866;4.324;2023-04-03T01:00:36;16;13;
71858;PMS5003;59713;50.866;4.324;2023-04-03T01:01:35;16;13;
71858;PMS5003;59713;50.866;4.324;2023-04-03T01:02:35;16;13;
71858;PMS5003;59713;50.866;4.324;2023-04-03T01:03:35;20;16;
71858;PMS5003;59713;50.866;4.324;2023-04-03T01:04:36;20;16;
71858;PMS5003;59713;50.866;4.324;2023-04-03T01:05:35;20;16;
71858;PMS5003;59713;50.866;4.324;2023-04-03T01:06:36;17;15;
71858;PMS5003;59713;50.866;4.324;2023-04-03T01:07:35;17;15;
71858;PMS5003;59713;50.866;4.324;2023-04-03T01:08:35;17;15;
71858;PMS5003;59713;50.866;4.324;2023-04-03T01:09:35;17;15;
71858;PMS5003;59713;50.866;4.324;2023-04-03T01:10:35;17;15;
71858;PMS5003;59713;50.866;4.324;2023-04-03T01:10:35;17;15;
71858;PMS5003;59713;50.866;4.324;2023-04-03T01:11:35;17;15;
71858;PMS5003;59713;50.866;4.324;2023-04-03T01:12:36;15;14;
71858;PMS5003;59713;50.866;4.324;2023-04-03T01:13:38;15;14;
71858;PMS5003;59713;50.866;4.324;2023-04-03T01:14:35;15;14;
71858;PMS5003;59713;50.866;4.324;2023-04-03T01:15:35;11;10;
71858;PMS5003;59713;50.866;4.324;2023-04-03T01:16:35;11;10;
71858;PMS5003;59713;50.866;4.324;2023-04-03T01:17:36;11;10;
71858;PMS5003;59713;50.866;4.324;2023-04-03T01:18:35;20;16;
71858;PMS5003;59713;50.866;4.324;2023-04-03T01:19:35;20;16;
71858;PMS5003;59713;50.866;4.324;2023-04-03T01:19:35;20;16;
71858;PMS5003;59713;50.866;4.324;2023-04-03T01:20:43;20;16;
71858;PMS5003;59713;50.866;4.324;2023-04-03T01:21:47;23;17;
71858;PMS5003;59713;50.866;4.324;2023-04-03T01:22:37;23;17;
71858;PMS5003;59713;50.866;4.324;2023-04-03T01:23:41;23;17;
71858;PMS5003;59713;50.866;4.324;2023-04-03T01:24:35;17;17;
71858;PMS5003;59713;50.866;4.324;2023-04-03T01:25:36;17;17;
71858;PMS5003;59713;50.866;4.324;2023-04-03T01:26:35;17;17;
71858;PMS5003;59713;50.866;4.324;2023-04-03T01:27:35;14;14;
71858;PMS5003;59713;50.866;4.324;2023-04-03T01:28:36;14;14;
71858;PMS5003;59713;50.866;4.324;2023-04-03T01:28:36;14;14;
71858;PMS5003;59713;50.866;4.324;2023-04-03T01:29:35;14;14;
71858;PMS5003;59713;50.866;4.324;2023-04-03T01:30:36;19;16;
71858;PMS5003;59713;50.866;4.324;2023-04-03T01:31:49;19;16;
71858;PMS5003;59713;50.866;4.324;2023-04-03T01:32:35;19;16;
71858;PMS5003;59713;50.866;4.324;2023-04-03T01:33:35;14;14;
71858;PMS5003;59713;50.866;4.324;2023-04-03T01:34:35;14;14;
71858;PMS5003;59713;50.866;4.324;2023-04-03T01:35:35;14;14;
71858;PMS5003;59713;50.866;4.324;2023-04-03T01:36:35;15;12;
71858;PMS5003;59713;50.866;4.324;2023-04-03T01:37:35;15;12;
71858;PMS5003;59713;50.866;4.324;2023-04-03T01:37:35;15;12;
71858;PMS5003;59713;50.866;4.324;2023-04-03T01:38:35;15;12;
71858;PMS5003;59713;50.866;4.324;2023-04-03T01:39:35;13;13;
71858;PMS5003;59713;50.866;4.324;2023-04-03T01:40:35;13;13;
71858;PMS5003;59713;50.866;4.324;2023-04-03T01:41:35;13;13;
71858;PMS5003;59713;50.866;4.324;2023-04-03T01:42:35;16;15;
71858;PMS5003;59713;50.866;4.324;2023-04-03T01:43:35;16;15;
71858;PMS5003;59713;50.866;4.324;2023-04-03T01:44:35;16;15;
71858;PMS5003;59713;50.866;4.324;2023-04-03T01:45:35;17;16;
71858;PMS5003;59713;50.866;4.324;2023-04-03T01:46:35;17;16;
71858;PMS5003;59713;50.866;4.324;2023-04-03T01:47:35;17;16;
71858;PMS5003;59713;50.866;4.324;2023-04-03T01:47:35;17;16;
71858;PMS5003;59713;50.866;4.324;2023-04-03T01:48:35;15;14;
71858;PMS5003;59713;50.866;4.324;2023-04-03T01:49:35;15;14;
71858;PMS5003;59713;50.866;4.324;2023-04-03T01:50:35;15;14;
71858;PMS5003;59713;50.866;4.324;2023-04-03T01:51:35;19;18;
71858;PMS5003;59713;50.866;4.324;2023-04-03T01:52:35;19;18;
71858;PMS5003;59713;50.866;4.324;2023-04-03T01:53:35;19;18;
71858;PMS5003;59713;50.866;4.324;2023-04-03T01:54:35;17;14;
71858;PMS5003;59713;50.866;4.324;2023-04-03T01:55:35;17;14;
71858;PMS5003;59713;50.866;4.324;2023-04-03T01:56:35;17;14;
71858;PMS5003;59713;50.866;4.324;2023-04-03T01:57:35;16;16;
71858;PMS5003;59713;50.866;4.324;2023-04-03T01:57:35;16;16;
71858;PMS5003;59713;50.866;4.324;2023-04-03T01:58:35;16;16;
71858;PMS5003;59713;50.866;4.324;2023-04-03T01:59:35;16;16;
71858;PMS5003;59713;50.866;4.324;2023-04-03T02:00:35;13;11;
71858;PMS5003;59713;50.866;4.324;2023-04-03T02:01:35;13;11;
71858;PMS5003;59713;50.866;4.324;2023-04-03T02:02:35;13;11;
71858;PMS5003;59713;50.866;4.324;2023-04-03T02:03:35;19;16;
71858;PMS5003;59713;50.866;4.324;2023-04-03T02:04:35;19;16;
71858;PMS5003;59713;50.866;4.324;2023-04-03T02:05:35;19;16;
71858;PMS5003;59713;50.866;4.324;2023-04-03T02:06:35;14;13;
71858;PMS5003;59713;50.866;4.324;2023-04-03T02:06:35;14;13;
71858;PMS5003;59713;50.866;4.324;2023-04-03T02:07:36;14;13;
71858;PMS5003;59713;50.866;4.324;2023-04-03T02:08:35;14;13;
71858;PMS5003;59713;50.866;4.324;2023-04-03T02:09:35;14;12;
71858;PMS5003;59713;50.866;4.324;2023-04-03T02:10:35;14;12;
71858;PMS5003;59713;50.866;4.324;2023-04-03T02:11:35;14;12;
71858;PMS5003;59713;50.866;4.324;2023-04-03T02:12:35;17;14;
71858;PMS5003;59713;50.866;4.324;2023-04-03T02:13:35;17;14;
71858;PMS5003;59713;50.866;4.324;2023-04-03T02:14:35;17;14;
71858;PMS5003;59713;50.866;4.324;2023-04-03T02:15:37;19;16;
71858;PMS5003;59713;50.866;4.324;2023-04-03T02:15:37;19;16;
71858;PMS5003;59713;50.866;4.324;2023-04-03T02:16:35;19;16;
71858;PMS5003;59713;50.866;4.324;2023-04-03T02:17:35;19;16;
71858;PMS5003;59713;50.866;4.324;2023-04-03T02:18:35;16;14;
71858;PMS5003;59713;50.866;4.324;2023-04-03T02:19:35;16;14;
71858;PMS5003;59713;50.866;4.324;2023-04-03T02:20:35;16;14;
71858;PMS5003;59713;50.866;4.324;2023-04-03T02:21:35;14;14;
71858;PMS5003;59713;50.866;4.324;2023-04-03T02:22:35;14;14;
71858;PMS5003;59713;50.866;4.324;2023-04-03T02:23:35;14;14;
71858;PMS5003;59713;50.866;4.324;2023-04-03T02:24:35;14;13;
71858;PMS5003;59713;50.866;4.324;2023-04-03T02:24:35;14;13;
71858;PMS5003;59713;50.866;4.324;2023-04-03T02:25:35;14;13;
71858;PMS5003;59713;50.866;4.324;2023-04-03T02:26:36;14;13;
71858;PMS5003;59713;50.866;4.324;2023-04-03T02:27:35;17;15;
71858;PMS5003;59713;50.866;4.324;2023-04-03T02:28:36;17;15;
71858;PMS5003;59713;50.866;4.324;2023-04-03T02:29:35;17;15;
71858;PMS5003;59713;50.866;4.324;2023-04-03T02:30:35;17;14;
71858;PMS5003;59713;50.866;4.324;2023-04-03T02:31:35;17;14;
71858;PMS5003;59713;50.866;4.324;2023-04-03T02:32:35;17;14;
71858;PMS5003;59713;50.866;4.324;2023-04-03T02:33:35;16;12;
71858;PMS5003;59713;50.866;4.324;2023-04-03T02:33:35;16;12;
71858;PMS5003;59713;50.866;4.324;2023-04-03T02:34:35;16;12;
71858;PMS5003;59713;50.866;4.324;2023-04-03T02:35:35;16;12;
71858;PMS5003;59713;50.866;4.324;2023-04-03T02:36:35;16;16;
71858;PMS5003;59713;50.866;4.324;2023-04-03T02:37:35;16;16;
71858;PMS5003;59713;50.866;4.324;2023-04-03T02:38:35;16;16;
71858;PMS5003;59713;50.866;4.324;2023-04-03T02:39:35;15;15;
71858;PMS5003;59713;50.866;4.324;2023-04-03T02:40:35;15;15;
71858;PMS5003;59713;50.866;4.324;2023-04-03T02:41:35;15;15;
71858;PMS5003;59713;50.866;4.324;2023-04-03T02:42:35;14;14;
71858;PMS5003;59713;50.866;4.324;2023-04-03T02:43:35;14;14;
71858;PMS5003;59713;50.866;4.324;2023-04-03T02:43:35;14;14;
71858;PMS5003;59713;50.866;4.324;2023-04-03T02:44:35;14;14;
71858;PMS5003;59713;50.866;4.324;2023-04-03T02:45:35;19;16;
71858;PMS5003;59713;50.866;4.324;2023-04-03T02:46:35;19;16;
71858;PMS5003;59713;50.866;4.324;2023-04-03T02:47:35;19;16;
71858;PMS5003;59713;50.866;4.324;2023-04-03T02:48:35;16;15;
71858;PMS5003;59713;50.866;4.324;2023-04-03T02:49:35;16;15;
71858;PMS5003;59713;50.866;4.324;2023-04-03T02:50:35;16;15;
71858;PMS5003;59713;50.866;4.324;2023-04-03T02:51:35;19;16;
71858;PMS5003;59713;50.866;4.324;2023-04-03T02:52:35;19;16;
71858;PMS5003;59713;50.866;4.324;2023-04-03T02:52:35;19;16;
71858;PMS5003;59713;50.866;4.324;2023-04-03T02:53:35;19;16;
71858;PMS5003;59713;50.866;4.324;2023-04-03T02:54:35;18;17;
71858;PMS5003;59713;50.866;4.324;2023-04-03T02:55:35;18;17;
71858;PMS5003;59713;50.866;4.324;2023-04-03T02:56:35;18;17;
71858;PMS5003;59713;50.866;4.324;2023-04-03T02:57:35;16;13;
71858;PMS5003;59713;50.866;4.324;2023-04-03T02:58:35;16;13;
71858;PMS5003;59713;50.866;4.324;2023-04-03T02:59:35;16;13;
71858;PMS5003;59713;50.866;4.324;2023-04-03T03:00:35;17;15;
71858;PMS5003;59713;50.866;4.324;2023-04-03T03:01:35;17;15;
71858;PMS5003;59713;50.866;4.324;2023-04-03T03:01:35;17;15;
71858;PMS5003;59713;50.866;4.324;2023-04-03T03:02:35;17;15;
71858;PMS5003;59713;50.866;4.324;2023-04-03T03:03:35;13;13;
71858;PMS5003;59713;50.866;4.324;2023-04-03T03:04:35;13;13;
71858;PMS5003;59713;50.866;4.324;2023-04-03T03:05:35;13;13;
71858;PMS5003;59713;50.866;4.324;2023-04-03T03:06:35;14;14;
71858;PMS5003;59713;50.866;4.324;2023-04-03T03:07:35;14;14;
71858;PMS5003;59713;50.866;4.324;2023-04-03T03:08:35;14;14;
71858;PMS5003;59713;50.866;4.324;2023-04-03T03:09:35;14;14;
71858;PMS5003;59713;50.866;4.324;2023-04-03T03:10:35;14;14;
71858;PMS5003;59713;50.866;4.324;2023-04-03T03:10:35;14;14;
71858;PMS5003;59713;50.866;4.324;2023-04-03T03:11:35;14;14;
71858;PMS5003;59713;50.866;4.324;2023-04-03T03:12:35;17;16;
71858;PMS5003;59713;50.866;4.324;2023-04-03T03:13:35;17;16;
71858;PMS5003;59713;50.866;4.324;2023-04-03T03:14:35;17;16;
71858;PMS5003;59713;50.866;4.324;2023-04-03T03:15:35;17;15;
71858;PMS5003;59713;50.866;4.324;2023-04-03T03:16:35;17;15;
71858;PMS5003;59713;50.866;4.324;2023-04-03T03:17:35;17;15;
71858;PMS5003;59713;50.866;4.324;2023-04-03T03:18:35;16;15;
71858;PMS5003;59713;50.866;4.324;2023-04-03T03:19:35;16;15;
71858;PMS5003;59713;50.866;4.324;2023-04-03T03:20:35;16;15;
71858;PMS5003;59713;50.866;4.324;2023-04-03T03:20:35;16;15;
71858;PMS5003;59713;50.866;4.324;2023-04-03T03:21:35;20;19;
71858;PMS5003;59713;50.866;4.324;2023-04-03T03:22:35;20;19;
71858;PMS5003;59713;50.866;4.324;2023-04-03T03:23:35;20;19;
71858;PMS5003;59713;50.866;4.324;2023-04-03T03:24:35;16;14;
71858;PMS5003;59713;50.866;4.324;2023-04-03T03:25:37;16;14;
71858;PMS5003;59713;50.866;4.324;2023-04-03T03:26:35;16;14;
71858;PMS5003;59713;50.866;4.324;2023-04-03T03:27:35;15;15;
71858;PMS5003;59713;50.866;4.324;2023-04-03T03:28:36;15;15;
71858;PMS5003;59713;50.866;4.324;2023-04-03T03:29:35;15;15;
71858;PMS5003;59713;50.866;4.324;2023-04-03T03:29:35;15;15;
71858;PMS5003;59713;50.866;4.324;2023-04-03T03:30:35;18;17;
71858;PMS5003;59713;50.866;4.324;2023-04-03T03:31:35;18;17;
71858;PMS5003;59713;50.866;4.324;2023-04-03T03:32:35;18;17;
71858;PMS5003;59713;50.866;4.324;2023-04-03T03:33:35;20;15;
71858;PMS5003;59713;50.866;4.324;2023-04-03T03:34:35;20;15;
71858;PMS5003;59713;50.866;4.324;2023-04-03T03:35:35;20;15;
71858;PMS5003;59713;50.866;4.324;2023-04-03T03:36:35;24;20;
71858;PMS5003;59713;50.866;4.324;2023-04-03T03:37:35;24;20;
71858;PMS5003;59713;50.866;4.324;2023-04-03T03:38:35;24;20;
71858;PMS5003;59713;50.866;4.324;2023-04-03T03:39:35;17;17;
71858;PMS5003;59713;50.866;4.324;2023-04-03T03:39:35;17;17;
71858;PMS5003;59713;50.866;4.324;2023-04-03T03:40:35;17;17;
71858;PMS5003;59713;50.866;4.324;2023-04-03T03:41:37;17;17;
71858;PMS5003;59713;50.866;4.324;2023-04-03T03:42:35;20;19;
71858;PMS5003;59713;50.866;4.324;2023-04-03T03:43:35;20;19;
71858;PMS5003;59713;50.866;4.324;2023-04-03T03:44:35;20;19;
71858;PMS5003;59713;50.866;4.324;2023-04-03T03:45:35;17;15;
71858;PMS5003;59713;50.866;4.324;2023-04-03T03:46:35;17;15;
71858;PMS5003;59713;50.866;4.324;2023-04-03T03:47:35;17;15;
71858;PMS5003;59713;50.866;4.324;2023-04-03T03:48:35;24;17;
71858;PMS5003;59713;50.866;4.324;2023-04-03T03:48:35;24;17;
71858;PMS5003;59713;50.866;4.324;2023-04-03T03:49:35;24;17;
71858;PMS5003;59713;50.866;4.324;2023-04-03T03:50:35;24;17;
71858;PMS5003;59713;50.866;4.324;2023-04-03T03:51:35;21;19;
71858;PMS5003;59713;50.866;4.324;2023-04-03T03:52:35;21;19;
71858;PMS5003;59713;50.866;4.324;2023-04-03T03:53:35;21;19;
71858;PMS5003;59713;50.866;4.324;2023-04-03T03:54:35;17;16;
71858;PMS5003;59713;50.866;4.324;2023-04-03T03:55:35;17;16;
71858;PMS5003;59713;50.866;4.324;2023-04-03T03:56:35;17;16;
71858;PMS5003;59713;50.866;4.324;2023-04-03T03:57:35;17;16;
71858;PMS5003;59713;50.866;4.324;2023-04-03T03:57:35;17;16;
71858;PMS5003;59713;50.866;4.324;2023-04-03T03:58:35;17;16;
71858;PMS5003;59713;50.866;4.324;2023-04-03T03:59:35;17;16;
71858;PMS5003;59713;50.866;4.324;2023-04-03T04:00:35;22;17;
71858;PMS5003;59713;50.866;4.324;2023-04-03T04:01:35;22;17;
71858;PMS5003;59713;50.866;4.324;2023-04-03T04:02:35;22;17;
71858;PMS5003;59713;50.866;4.324;2023-04-03T04:03:35;19;18;
71858;PMS5003;59713;50.866;4.324;2023-04-03T04:04:35;19;18;
71858;PMS5003;59713;50.866;4.324;2023-04-03T04:05:35;19;18;
71858;PMS5003;59713;50.866;4.324;2023-04-03T04:06:35;20;20;
71858;PMS5003;59713;50.866;4.324;2023-04-03T04:07:35;20;20;
71858;PMS5003;59713;50.866;4.324;2023-04-03T04:07:35;20;20;
71858;PMS5003;59713;50.866;4.324;2023-04-03T04:08:36;20;20;
71858;PMS5003;59713;50.866;4.324;2023-04-03T04:09:35;20;19;
71858;PMS5003;59713;50.866;4.324;2023-04-03T04:10:35;20;19;
71858;PMS5003;59713;50.866;4.324;2023-04-03T04:11:35;20;19;
71858;PMS5003;59713;50.866;4.324;2023-04-03T04:12:35;21;18;
71858;PMS5003;59713;50.866;4.324;2023-04-03T04:13:35;21;18;
71858;PMS5003;59713;50.866;4.324;2023-04-03T04:14:35;21;18;
71858;PMS5003;59713;50.866;4.324;2023-04-03T04:15:35;22;20;
71858;PMS5003;59713;50.866;4.324;2023-04-03T04:16:35;22;20;
71858;PMS5003;59713;50.866;4.324;2023-04-03T04:16:35;22;20;
71858;PMS5003;59713;50.866;4.324;2023-04-03T04:17:35;22;20;
71858;PMS5003;59713;50.866;4.324;2023-04-03T04:18:35;16;14;
71858;PMS5003;59713;50.866;4.324;2023-04-03T04:19:35;16;14;
71858;PMS5003;59713;50.866;4.324;2023-04-03T04:20:35;16;14;
71858;PMS5003;59713;50.866;4.324;2023-04-03T04:21:35;27;21;
71858;PMS5003;59713;50.866;4.324;2023-04-03T04:22:35;27;21;
71858;PMS5003;59713;50.866;4.324;2023-04-03T04:23:35;27;21;
71858;PMS5003;59713;50.866;4.324;2023-04-03T04:24:35;24;18;
71858;PMS5003;59713;50.866;4.324;2023-04-03T04:25:35;24;18;
71858;PMS5003;59713;50.866;4.324;2023-04-03T04:26:35;24;18;
71858;PMS5003;59713;50.866;4.324;2023-04-03T04:26:35;24;18;
71858;PMS5003;59713;50.866;4.324;2023-04-03T04:27:35;21;18;
71858;PMS5003;59713;50.866;4.324;2023-04-03T04:28:35;21;18;
71858;PMS5003;59713;50.866;4.324;2023-04-03T04:29:35;21;18;
71858;PMS5003;59713;50.866;4.324;2023-04-03T04:30:35;18;18;
71858;PMS5003;59713;50.866;4.324;2023-04-03T04:31:35;18;18;
71858;PMS5003;59713;50.866;4.324;2023-04-03T04:32:35;18;18;
71858;PMS5003;59713;50.866;4.324;2023-04-03T04:33:35;19;18;
71858;PMS5003;59713;50.866;4.324;2023-04-03T04:34:35;19;18;
71858;PMS5003;59713;50.866;4.324;2023-04-03T04:35:35;19;18;
71858;PMS5003;59713;50.866;4.324;2023-04-03T04:35:35;19;18;
71858;PMS5003;59713;50.866;4.324;2023-04-03T04:36:35;14;13;
71858;PMS5003;59713;50.866;4.324;2023-04-03T04:37:35;14;13;
71858;PMS5003;59713;50.866;4.324;2023-04-03T04:38:35;14;13;
71858;PMS5003;59713;50.866;4.324;2023-04-03T04:39:35;16;16;
71858;PMS5003;59713;50.866;4.324;2023-04-03T04:40:35;16;16;
71858;PMS5003;59713;50.866;4.324;2023-04-03T04:41:35;16;16;
71858;PMS5003;59713;50.866;4.324;2023-04-03T04:42:35;22;20;
71858;PMS5003;59713;50.866;4.324;2023-04-03T04:43:35;22;20;
71858;PMS5003;59713;50.866;4.324;2023-04-03T04:44:35;22;20;
71858;PMS5003;59713;50.866;4.324;2023-04-03T04:44:35;22;20;
71858;PMS5003;59713;50.866;4.324;2023-04-03T04:45:35;25;18;
71858;PMS5003;59713;50.866;4.324;2023-04-03T04:46:35;25;18;
71858;PMS5003;59713;50.866;4.324;2023-04-03T04:47:35;25;18;
71858;PMS5003;59713;50.866;4.324;2023-04-03T04:48:35;17;17;
71858;PMS5003;59713;50.866;4.324;2023-04-03T04:49:35;17;17;
71858;PMS5003;59713;50.866;4.324;2023-04-03T04:50:35;17;17;
71858;PMS5003;59713;50.866;4.324;2023-04-03T04:51:35;20;19;
71858;PMS5003;59713;50.866;4.324;2023-04-03T04:52:35;20;19;
71858;PMS5003;59713;50.866;4.324;2023-04-03T04:53:35;20;19;
71858;PMS5003;59713;50.866;4.324;2023-04-03T04:53:35;20;19;
71858;PMS5003;59713;50.866;4.324;2023-04-03T04:54:35;18;17;
71858;PMS5003;59713;50.866;4.324;2023-04-03T04:55:35;18;17;
71858;PMS5003;59713;50.866;4.324;2023-04-03T04:56:35;18;17;
71858;PMS5003;59713;50.866;4.324;2023-04-03T04:57:35;21;18;
71858;PMS5003;59713;50.866;4.324;2023-04-03T04:58:35;21;18;
71858;PMS5003;59713;50.866;4.324;2023-04-03T04:59:35;21;18;
71858;PMS5003;59713;50.866;4.324;2023-04-03T05:00:35;21;15;
71858;PMS5003;59713;50.866;4.324;2023-04-03T05:01:35;21;15;
71858;PMS5003;59713;50.866;4.324;2023-04-03T05:02:35;21;15;
71858;PMS5003;59713;50.866;4.324;2023-04-03T05:03:35;22;17;
71858;PMS5003;59713;50.866;4.324;2023-04-03T05:03:35;22;17;
71858;PMS5003;59713;50.866;4.324;2023-04-03T05:04:35;22;17;
71858;PMS5003;59713;50.866;4.324;2023-04-03T05:05:35;22;17;
71858;PMS5003;59713;50.866;4.324;2023-04-03T05:06:35;21;18;
71858;PMS5003;59713;50.866;4.324;2023-04-03T05:07:35;21;18;
71858;PMS5003;59713;50.866;4.324;2023-04-03T05:08:35;21;18;
71858;PMS5003;59713;50.866;4.324;2023-04-03T05:09:35;17;16;
71858;PMS5003;59713;50.866;4.324;2023-04-03T05:10:35;17;16;
71858;PMS5003;59713;50.866;4.324;2023-04-03T05:11:35;17;16;
71858;PMS5003;59713;50.866;4.324;2023-04-03T05:12:35;18;16;
71858;PMS5003;59713;50.866;4.324;2023-04-03T05:12:35;18;16;
71858;PMS5003;59713;50.866;4.324;2023-04-03T05:13:35;18;16;
71858;PMS5003;59713;50.866;4.324;2023-04-03T05:14:35;18;16;
71858;PMS5003;59713;50.866;4.324;2023-04-03T05:15:35;18;17;
71858;PMS5003;59713;50.866;4.324;2023-04-03T05:16:35;18;17;
71858;PMS5003;59713;50.866;4.324;2023-04-03T05:17:35;18;17;
71858;PMS5003;59713;50.866;4.324;2023-04-03T05:18:41;22;18;
71858;PMS5003;59713;50.866;4.324;2023-04-03T05:19:35;22;18;
71858;PMS5003;59713;50.866;4.324;2023-04-03T05:20:35;22;18;
71858;PMS5003;59713;50.866;4.324;2023-04-03T05:21:35;23;21;
71858;PMS5003;59713;50.866;4.324;2023-04-03T05:21:35;23;21;
71858;PMS5003;59713;50.866;4.324;2023-04-03T05:22:35;23;21;
71858;PMS5003;59713;50.866;4.324;2023-04-03T05:23:35;23;21;
71858;PMS5003;59713;50.866;4.324;2023-04-03T05:24:35;20;18;
71858;PMS5003;59713;50.866;4.324;2023-04-03T05:25:36;20;18;
71858;PMS5003;59713;50.866;4.324;2023-04-03T05:26:35;20;18;
71858;PMS5003;59713;50.866;4.324;2023-04-03T05:27:35;22;19;
71858;PMS5003;59713;50.866;4.324;2023-04-03T05:28:35;22;19;
71858;PMS5003;59713;50.866;4.324;2023-04-03T05:29:35;22;19;
71858;PMS5003;59713;50.866;4.324;2023-04-03T05:30:35;23;23;
71858;PMS5003;59713;50.866;4.324;2023-04-03T05:30:35;23;23;
71858;PMS5003;59713;50.866;4.324;2023-04-03T05:31:35;23;23;
71858;PMS5003;59713;50.866;4.324;2023-04-03T05:32:35;23;23;
71858;PMS5003;59713;50.866;4.324;2023-04-03T05:33:35;25;24;
71858;PMS5003;59713;50.866;4.324;2023-04-03T05:34:35;25;24;
71858;PMS5003;59713;50.866;4.324;2023-04-03T05:35:36;25;24;
71858;PMS5003;59713;50.866;4.324;2023-04-03T05:36:35;24;20;
71858;PMS5003;59713;50.866;4.324;2023-04-03T05:37:36;24;20;
71858;PMS5003;59713;50.866;4.324;2023-04-03T05:38:35;24;20;
71858;PMS5003;59713;50.866;4.324;2023-04-03T05:39:35;20;18;
71858;PMS5003;59713;50.866;4.324;2023-04-03T05:40:35;20;18;
71858;PMS5003;59713;50.866;4.324;2023-04-03T05:40:35;20;18;
71858;PMS5003;59713;50.866;4.324;2023-04-03T05:41:35;20;18;
71858;PMS5003;59713;50.866;4.324;2023-04-03T05:42:35;20;20;
71858;PMS5003;59713;50.866;4.324;2023-04-03T05:43:35;20;20;
71858;PMS5003;59713;50.866;4.324;2023-04-03T05:44:35;20;20;
71858;PMS5003;59713;50.866;4.324;2023-04-03T05:45:35;21;21;
71858;PMS5003;59713;50.866;4.324;2023-04-03T05:46:35;21;21;
71858;PMS5003;59713;50.866;4.324;2023-04-03T05:47:35;21;21;
71858;PMS5003;59713;50.866;4.324;2023-04-03T05:48:35;23;23;
71858;PMS5003;59713;50.866;4.324;2023-04-03T05:49:35;23;23;
71858;PMS5003;59713;50.866;4.324;2023-04-03T05:49:35;23;23;
71858;PMS5003;59713;50.866;4.324;2023-04-03T05:50:37;23;23;
71858;PMS5003;59713;50.866;4.324;2023-04-03T05:51:36;28;25;
71858;PMS5003;59713;50.866;4.324;2023-04-03T05:52:37;28;25;
71858;PMS5003;59713;50.866;4.324;2023-04-03T05:53:35;28;25;
71858;PMS5003;59713;50.866;4.324;2023-04-03T05:54:35;28;26;
71858;PMS5003;59713;50.866;4.324;2023-04-03T05:55:35;28;26;
71858;PMS5003;59713;50.866;4.324;2023-04-03T05:56:36;28;26;
71858;PMS5003;59713;50.866;4.324;2023-04-03T05:57:35;22;22;
71858;PMS5003;59713;50.866;4.324;2023-04-03T05:58:35;22;22;
71858;PMS5003;59713;50.866;4.324;2023-04-03T05:59:35;22;22;
71858;PMS5003;59713;50.866;4.324;2023-04-03T05:59:35;22;22;
71858;PMS5003;59713;50.866;4.324;2023-04-03T06:00:35;19;17;